Time;durP1;ratioP1;P1;durP2;ratioP2;P2;SDS_P1;SDS_P2;PMS_P1;PMS_P2;Temp;Humidity;BMP_temperature;BMP_pressure;BME280_temperature;BME280_humidity;BME280_pressure;Samples;Min_cycle;Max_cycle;Signal;HPM_P1;HPM_P2
2024/01/24 00:01:01;;;;;;;4.35;2.40;;;;;;;;;;4986414;28;58834;-65
2024/01/24 00:03:27;;;;;;;3.10;1.77;;;;;;;;;;4983499;28;59267;-66
2024/01/24 00:05:52;;;;;;;4.32;1.50;;;;;;;;;;4985963;28;58612;-66
2024/01/24 00:08:17;;;;;;;4.15;2.05;;;;;;;;;;4989027;28;58869;-65
2024/01/24 00:10:42;;;;;;;6.10;2.23;;;;;;;;;;4981968;28;59762;-65
2024/01/24 00:13:08;;;;;;;6.90;2.20;;;;;;;;;;4985489;28;59624;-65
2024/01/24 00:15:33;;;;;;;4.30;1.85;;;;;;;;;;4986954;28;58232;-65
2024/01/24 00:17:58;;;;;;;4.83;1.93;;;;;;;;;;4984303;28;59430;-64
2024/01/24 00:20:23;;;;;;;3.97;2.10;;;;;;;;;;4988349;28;58222;-66
2024/01/24 00:22:48;;;;;;;3.33;1.90;;;;;;;;;;4988031;28;59699;-65
2024/01/24 00:25:13;;;;;;;3.60;2.00;;;;;;;;;;4991657;28;58801;-64
2024/01/24 00:27:39;;;;;;;4.30;1.77;;;;;;;;;;4988655;28;58331;-64
2024/01/24 00:30:05;;;;;;;3.13;2.00;;;;;;;;;;4986551;28;58986;-65
2024/01/24 00:32:30;;;;;;;6.07;2.15;;;;;;;;;;4984937;28;58723;-64
2024/01/24 00:34:55;;;;;;;2.87;2.10;;;;;;;;;;4990134;28;58307;-65
2024/01/24 00:37:20;;;;;;;4.68;2.42;;;;;;;;;;4988061;28;59269;-63
2024/01/24 00:39:47;;;;;;;2.65;1.58;;;;;;;;;;4990066;28;58342;-64
2024/01/24 00:42:12;;;;;;;3.20;1.80;;;;;;;;;;4990640;28;60697;-66
2024/01/24 00:44:39;;;;;;;4.53;2.23;;;;;;;;;;4991188;28;59150;-64
2024/01/24 00:47:04;;;;;;;5.78;2.85;;;;;;;;;;4989803;28;58775;-64
2024/01/24 00:49:30;;;;;;;4.47;2.43;;;;;;;;;;4985966;28;59456;-63
2024/01/24 00:51:55;;;;;;;4.30;2.22;;;;;;;;;;4986576;28;58538;-64
2024/01/24 00:54:20;;;;;;;3.80;1.88;;;;;;;;;;4983456;28;58995;-64
2024/01/24 00:56:45;;;;;;;2.92;1.65;;;;;;;;;;4988899;28;59551;-63
2024/01/24 00:59:11;;;;;;;2.17;1.80;;;;;;;;;;4986399;28;58473;-65
2024/01/24 01:01:36;;;;;;;4.85;1.20;;;;;;;;;;4991666;28;58521;-64
2024/01/24 01:04:01;;;;;;;3.25;1.20;;;;;;;;;;4986994;28;59047;-64
2024/01/24 01:06:27;;;;;;;3.07;1.67;;;;;;;;;;4988814;28;58536;-64
2024/01/24 01:08:52;;;;;;;4.33;1.63;;;;;;;;;;4989618;28;59716;-64
2024/01/24 01:11:17;;;;;;;4.93;1.52;;;;;;;;;;4987801;28;58962;-64
2024/01/24 01:13:42;;;;;;;3.97;1.70;;;;;;;;;;4988080;28;58366;-66
2024/01/24 01:16:07;;;;;;;3.57;1.73;;;;;;;;;;4990742;28;60237;-64
2024/01/24 01:18:32;;;;;;;3.47;1.77;;;;;;;;;;4988351;28;58927;-64
2024/01/24 01:20:58;;;;;;;4.07;1.50;;;;;;;;;;4989067;28;59245;-65
2024/01/24 01:23:23;;;;;;;3.80;1.33;;;;;;;;;;4986154;28;59192;-69
2024/01/24 01:25:49;;;;;;;2.70;1.55;;;;;;;;;;4987538;28;58541;-70
2024/01/24 01:28:14;;;;;;;3.90;1.57;;;;;;;;;;4986101;28;58471;-69
2024/01/24 01:30:39;;;;;;;3.90;1.63;;;;;;;;;;4988427;28;58462;-69
2024/01/24 01:33:04;;;;;;;4.57;2.27;;;;;;;;;;4989174;28;58633;-69
2024/01/24 01:35:29;;;;;;;2.17;1.30;;;;;;;;;;4986321;28;58817;-69
2024/01/24 01:37:54;;;;;;;3.83;2.20;;;;;;;;;;4984971;28;59079;-70
2024/01/24 01:40:20;;;;;;;3.67;1.63;;;;;;;;;;4986597;28;58560;-69
2024/01/24 01:42:45;;;;;;;3.60;1.60;;;;;;;;;;4989284;28;58543;-69
2024/01/24 01:45:10;;;;;;;3.07;1.73;;;;;;;;;;4987112;28;58623;-70
2024/01/24 01:47:36;;;;;;;1.77;1.40;;;;;;;;;;4990421;28;59307;-69
2024/01/24 01:50:01;;;;;;;2.50;1.42;;;;;;;;;;4989458;28;59851;-69
2024/01/24 01:52:26;;;;;;;2.43;1.30;;;;;;;;;;4989944;28;58813;-69
2024/01/24 01:54:52;;;;;;;3.73;2.13;;;;;;;;;;4987964;28;59738;-69
2024/01/24 01:57:17;;;;;;;7.00;1.92;;;;;;;;;;4984054;28;59190;-69
2024/01/24 01:59:42;;;;;;;2.77;1.80;;;;;;;;;;4990743;28;59128;-69
2024/01/24 02:02:09;;;;;;;3.37;1.50;;;;;;;;;;4990775;28;58864;-69
2024/01/24 02:04:34;;;;;;;3.17;2.17;;;;;;;;;;4986341;28;58642;-69
2024/01/24 02:07:00;;;;;;;3.37;1.40;;;;;;;;;;4988582;28;61102;-69
2024/01/24 02:09:25;;;;;;;2.38;1.13;;;;;;;;;;4986403;28;59902;-69
2024/01/24 02:11:50;;;;;;;3.60;1.73;;;;;;;;;;4982727;28;58555;-70
2024/01/24 02:14:16;;;;;;;3.72;2.22;;;;;;;;;;4989120;28;59215;-70
2024/01/24 02:16:41;;;;;;;4.95;2.17;;;;;;;;;;4984901;28;58991;-69
2024/01/24 02:19:07;;;;;;;2.83;1.63;;;;;;;;;;4992763;28;58362;-69
2024/01/24 02:21:33;;;;;;;3.93;1.73;;;;;;;;;;4987225;28;58893;-69
2024/01/24 02:23:58;;;;;;;3.03;1.67;;;;;;;;;;4990762;28;58552;-69
2024/01/24 02:26:23;;;;;;;2.78;1.60;;;;;;;;;;4986947;28;60560;-69
2024/01/24 02:28:49;;;;;;;4.83;1.53;;;;;;;;;;4987978;28;58931;-70
2024/01/24 02:31:14;;;;;;;10.93;1.80;;;;;;;;;;4986165;28;58878;-69
2024/01/24 02:33:39;;;;;;;2.73;1.80;;;;;;;;;;4985234;28;60546;-65
2024/01/24 02:36:04;;;;;;;2.90;1.07;;;;;;;;;;4984106;28;59248;-65
2024/01/24 02:38:30;;;;;;;3.03;2.13;;;;;;;;;;4985706;28;59251;-66
2024/01/24 02:40:55;;;;;;;1.88;1.55;;;;;;;;;;4985342;28;58657;-65
2024/01/24 02:43:20;;;;;;;2.85;1.33;;;;;;;;;;4985112;28;58649;-68
2024/01/24 02:45:45;;;;;;;2.00;1.43;;;;;;;;;;4985760;28;59766;-68
2024/01/24 02:48:10;;;;;;;2.83;2.05;;;;;;;;;;4986753;28;58621;-69
2024/01/24 02:50:35;;;;;;;2.70;0.90;;;;;;;;;;4982557;28;58783;-68
2024/01/24 02:53:01;;;;;;;3.83;1.90;;;;;;;;;;4985174;28;58383;-68
2024/01/24 02:55:26;;;;;;;2.72;1.60;;;;;;;;;;4986710;28;59287;-69
2024/01/24 02:57:51;;;;;;;2.47;1.40;;;;;;;;;;4989330;28;58456;-68
2024/01/24 03:00:17;;;;;;;3.83;1.27;;;;;;;;;;4983477;28;60508;-68
2024/01/24 03:02:42;;;;;;;2.45;1.20;;;;;;;;;;4987859;28;58311;-68
2024/01/24 03:05:08;;;;;;;1.92;1.25;;;;;;;;;;4984437;28;58264;-68
2024/01/24 03:07:34;;;;;;;2.33;1.63;;;;;;;;;;4983189;28;60671;-68
2024/01/24 03:09:59;;;;;;;2.17;1.55;;;;;;;;;;4986799;28;59540;-68
2024/01/24 03:12:24;;;;;;;2.17;1.47;;;;;;;;;;4985642;28;59600;-69
2024/01/24 03:14:49;;;;;;;2.42;1.25;;;;;;;;;;4985924;28;59316;-69
2024/01/24 03:17:14;;;;;;;2.47;1.50;;;;;;;;;;4985790;28;58501;-68
2024/01/24 03:19:40;;;;;;;1.92;1.00;;;;;;;;;;4990613;28;60653;-68
2024/01/24 03:22:05;;;;;;;3.67;1.67;;;;;;;;;;4985500;28;58866;-68
2024/01/24 03:24:30;;;;;;;1.63;1.20;;;;;;;;;;4985412;28;58239;-68
2024/01/24 03:26:55;;;;;;;2.03;1.33;;;;;;;;;;4984515;28;58547;-69
2024/01/24 03:29:20;;;;;;;2.03;0.97;;;;;;;;;;4980865;28;58506;-68
2024/01/24 03:31:45;;;;;;;2.33;1.60;;;;;;;;;;4984412;28;59730;-68
2024/01/24 03:34:11;;;;;;;4.35;3.40;;;;;;;;;;4982590;28;58702;-70
2024/01/24 03:36:36;;;;;;;3.03;1.35;;;;;;;;;;4985826;28;59009;-69
2024/01/24 03:39:01;;;;;;;1.88;1.05;;;;;;;;;;4985603;28;61173;-69
2024/01/24 03:41:26;;;;;;;1.43;0.93;;;;;;;;;;4986892;28;59212;-69
2024/01/24 03:43:51;;;;;;;2.33;1.00;;;;;;;;;;4986493;28;58341;-64
2024/01/24 03:46:20;;;;;;;3.15;1.30;;;;;;;;;;4988061;28;59476;-64
2024/01/24 03:48:45;;;;;;;;;;;;;;;;;;4988757;28;58966;-65
2024/01/24 03:51:11;;;;;;;2.17;1.23;;;;;;;;;;4988119;28;59572;-64
2024/01/24 03:53:36;;;;;;;2.75;1.27;;;;;;;;;;4988718;28;58766;-64
2024/01/24 03:56:01;;;;;;;1.73;1.07;;;;;;;;;;4990592;28;58784;-64
2024/01/24 03:58:27;;;;;;;1.93;1.23;;;;;;;;;;4992202;28;58990;-66
2024/01/24 04:00:54;;;;;;;3.08;1.77;;;;;;;;;;4985393;28;59252;-65
2024/01/24 04:03:19;;;;;;;1.30;1.10;;;;;;;;;;4989782;28;58761;-66
2024/01/24 04:05:44;;;;;;;1.67;1.10;;;;;;;;;;4988247;28;58666;-66
2024/01/24 04:08:10;;;;;;;3.00;1.88;;;;;;;;;;4990240;28;58714;-66
2024/01/24 04:10:35;;;;;;;1.70;1.30;;;;;;;;;;4988519;28;59130;-65
2024/01/24 04:13:00;;;;;;;1.30;0.87;;;;;;;;;;4986149;28;59173;-65
2024/01/24 04:15:27;;;;;;;1.63;1.23;;;;;;;;;;4985775;28;58266;-66
2024/01/24 04:17:52;;;;;;;2.13;1.27;;;;;;;;;;4988207;28;60252;-65
2024/01/24 04:20:17;;;;;;;2.38;0.88;;;;;;;;;;4985411;28;58850;-64
2024/01/24 04:22:42;;;;;;;1.63;1.00;;;;;;;;;;4993396;28;58365;-64
2024/01/24 04:25:07;;;;;;;1.63;1.00;;;;;;;;;;4985980;28;58815;-64
2024/01/24 04:27:32;;;;;;;3.50;1.73;;;;;;;;;;4989574;28;59445;-64
2024/01/24 04:29:58;;;;;;;2.50;1.77;;;;;;;;;;4992025;28;58406;-65
2024/01/24 04:32:23;;;;;;;1.67;1.33;;;;;;;;;;4982416;28;58659;-66
2024/01/24 04:34:48;;;;;;;2.60;1.23;;;;;;;;;;4989390;28;58183;-65
2024/01/24 04:37:13;;;;;;;1.90;1.53;;;;;;;;;;4989131;28;58917;-64
2024/01/24 04:39:38;;;;;;;3.40;1.42;;;;;;;;;;4984803;28;58991;-64
2024/01/24 04:42:04;;;;;;;3.80;1.88;;;;;;;;;;4984981;28;58501;-65
2024/01/24 04:44:30;;;;;;;3.45;1.10;;;;;;;;;;4986687;28;58658;-65
2024/01/24 04:46:55;;;;;;;2.88;1.48;;;;;;;;;;4983527;28;60716;-64
2024/01/24 04:49:20;;;;;;;2.33;1.20;;;;;;;;;;4987977;28;58643;-64
2024/01/24 04:51:45;;;;;;;2.45;0.90;;;;;;;;;;4984932;28;58849;-65
2024/01/24 04:54:10;;;;;;;2.07;1.43;;;;;;;;;;4990045;28;58614;-64
2024/01/24 04:56:37;;;;;;;1.67;1.33;;;;;;;;;;4985514;28;60278;-64
2024/01/24 04:59:02;;;;;;;2.30;1.42;;;;;;;;;;4986507;28;59916;-64
2024/01/24 05:01:28;;;;;;;2.83;1.10;;;;;;;;;;4988828;28;58794;-64
2024/01/24 05:03:53;;;;;;;0.93;0.75;;;;;;;;;;4983533;28;61108;-68
2024/01/24 05:06:18;;;;;;;1.58;1.00;;;;;;;;;;4982883;28;59402;-67
2024/01/24 05:08:44;;;;;;;1.98;1.00;;;;;;;;;;4989713;28;58633;-68
2024/01/24 05:11:10;;;;;;;2.10;1.15;;;;;;;;;;4986480;28;58936;-68
2024/01/24 05:13:36;;;;;;;2.60;1.50;;;;;;;;;;4986858;28;58801;-68
2024/01/24 05:16:01;;;;;;;2.05;1.10;;;;;;;;;;4983264;28;58970;-68
2024/01/24 05:18:27;;;;;;;1.83;0.73;;;;;;;;;;4988036;28;58663;-69
2024/01/24 05:20:52;;;;;;;1.80;1.13;;;;;;;;;;4985464;28;58846;-68
2024/01/24 05:23:17;;;;;;;2.00;1.40;;;;;;;;;;4986224;28;58262;-68
2024/01/24 05:25:42;;;;;;;1.42;0.85;;;;;;;;;;4990368;28;60973;-68
2024/01/24 05:28:09;;;;;;;1.83;0.82;;;;;;;;;;4985883;28;58999;-68
2024/01/24 05:30:34;;;;;;;1.58;0.50;;;;;;;;;;4984540;28;59663;-68
2024/01/24 05:32:59;;;;;;;1.05;0.80;;;;;;;;;;4985506;28;59040;-68
2024/01/24 05:35:24;;;;;;;4.20;1.23;;;;;;;;;;4985496;28;58197;-68
2024/01/24 05:37:49;;;;;;;1.43;0.80;;;;;;;;;;4981515;28;59904;-73
2024/01/24 05:40:15;;;;;;;3.03;0.80;;;;;;;;;;4981217;28;58925;-72
2024/01/24 05:42:40;;;;;;;0.93;0.80;;;;;;;;;;4986008;28;59771;-72
2024/01/24 05:45:05;;;;;;;5.20;1.43;;;;;;;;;;4980512;28;58872;-71
2024/01/24 05:47:31;;;;;;;1.90;1.75;;;;;;;;;;4983682;28;58881;-71
2024/01/24 05:49:56;;;;;;;2.85;1.52;;;;;;;;;;4983452;28;60181;-71
2024/01/24 05:52:21;;;;;;;4.17;1.63;;;;;;;;;;4982635;28;59594;-71
2024/01/24 05:54:46;;;;;;;5.60;1.70;;;;;;;;;;4984053;28;58231;-71
2024/01/24 05:57:11;;;;;;;3.13;1.60;;;;;;;;;;4982165;28;59925;-72
2024/01/24 05:59:36;;;;;;;3.90;0.93;;;;;;;;;;4982834;28;58931;-72
2024/01/24 06:02:02;;;;;;;1.77;0.90;;;;;;;;;;4981410;28;59234;-72
2024/01/24 06:04:27;;;;;;;4.13;2.17;;;;;;;;;;4983252;28;59106;-74
2024/01/24 06:06:54;;;;;;;2.05;1.00;;;;;;;;;;4983421;28;58782;-72
2024/01/24 06:09:20;;;;;;;2.95;1.27;;;;;;;;;;4984941;28;59744;-72
2024/01/24 06:11:48;;;;;;;3.60;1.80;;;;;;;;;;4982495;28;59771;-71
2024/01/24 06:14:13;;;;;;;3.97;1.60;;;;;;;;;;4983050;28;58995;-69
2024/01/24 06:16:38;;;;;;;3.58;2.13;;;;;;;;;;4984651;28;59565;-70
2024/01/24 06:19:03;;;;;;;5.17;1.43;;;;;;;;;;4984913;28;58171;-70
2024/01/24 06:21:28;;;;;;;4.87;1.87;;;;;;;;;;4984200;28;59434;-72
2024/01/24 06:23:54;;;;;;;3.30;1.33;;;;;;;;;;4984054;28;58700;-72
2024/01/24 06:26:19;;;;;;;3.17;1.30;;;;;;;;;;4983690;28;58097;-68
2024/01/24 06:28:44;;;;;;;1.93;1.30;;;;;;;;;;4983925;28;59663;-69
2024/01/24 06:31:09;;;;;;;2.30;1.20;;;;;;;;;;4983671;28;58462;-69
2024/01/24 06:33:34;;;;;;;1.13;0.88;;;;;;;;;;4983262;28;58689;-68
2024/01/24 06:36:00;;;;;;;1.50;0.87;;;;;;;;;;4985130;28;59346;-68
2024/01/24 06:38:25;;;;;;;3.03;1.23;;;;;;;;;;4983824;28;59156;-70
2024/01/24 06:40:50;;;;;;;3.28;1.00;;;;;;;;;;4986607;28;59941;-69
2024/01/24 06:43:18;;;;;;;1.77;1.27;;;;;;;;;;4983288;28;59017;-68
2024/01/24 06:45:43;;;;;;;2.20;1.10;;;;;;;;;;4985387;28;58714;-68
2024/01/24 06:48:08;;;;;;;1.60;1.10;;;;;;;;;;4982972;28;60197;-68
2024/01/24 06:50:34;;;;;;;2.77;1.50;;;;;;;;;;4982832;28;58721;-70
2024/01/24 06:52:59;;;;;;;3.57;0.97;;;;;;;;;;4983002;28;58549;-69
2024/01/24 06:55:24;;;;;;;3.17;1.20;;;;;;;;;;4986455;28;59329;-69
2024/01/24 06:57:49;;;;;;;2.17;0.95;;;;;;;;;;4981371;28;59406;-69
2024/01/24 07:00:15;;;;;;;2.83;2.20;;;;;;;;;;4984138;28;58577;-70
2024/01/24 07:02:40;;;;;;;2.47;1.70;;;;;;;;;;4982605;28;59649;-68
2024/01/24 07:05:05;;;;;;;2.73;1.53;;;;;;;;;;4982891;28;60401;-69
2024/01/24 07:07:31;;;;;;;3.85;1.50;;;;;;;;;;4984019;28;59580;-70
2024/01/24 07:09:56;;;;;;;4.07;1.15;;;;;;;;;;4983422;28;58968;-68
2024/01/24 07:12:22;;;;;;;3.72;1.63;;;;;;;;;;4984641;28;58442;-68
2024/01/24 07:14:50;;;;;;;2.27;0.90;;;;;;;;;;4986641;28;59646;-71
2024/01/24 07:17:15;;;;;;;1.45;1.35;;;;;;;;;;4986033;28;58887;-68
2024/01/24 07:19:40;;;;;;;2.88;1.75;;;;;;;;;;4986982;28;59618;-69
2024/01/24 07:22:05;;;;;;;2.33;1.20;;;;;;;;;;4986345;28;59322;-68
2024/01/24 07:24:31;;;;;;;2.17;1.20;;;;;;;;;;4987708;28;59052;-69
2024/01/24 07:26:56;;;;;;;1.98;1.30;;;;;;;;;;4986176;28;59542;-71
2024/01/24 07:29:22;;;;;;;1.47;0.87;;;;;;;;;;4986175;28;60567;-68
2024/01/24 07:31:47;;;;;;;3.00;1.25;;;;;;;;;;4987050;28;58686;-69
2024/01/24 07:34:12;;;;;;;2.43;0.97;;;;;;;;;;4986238;28;59766;-68
2024/01/24 07:36:37;;;;;;;6.20;1.83;;;;;;;;;;4985138;28;58702;-68
2024/01/24 07:39:04;;;;;;;3.20;1.13;;;;;;;;;;4986715;28;58343;-71
2024/01/24 07:41:29;;;;;;;1.50;0.98;;;;;;;;;;4984934;28;59371;-69
2024/01/24 07:43:55;;;;;;;2.55;1.20;;;;;;;;;;4986917;28;60132;-68
2024/01/24 07:46:20;;;;;;;1.77;1.17;;;;;;;;;;4985528;28;58649;-68
2024/01/24 07:48:45;;;;;;;2.43;0.73;;;;;;;;;;4985097;28;59227;-68
2024/01/24 07:51:10;;;;;;;1.65;1.40;;;;;;;;;;4984688;28;58376;-67
2024/01/24 07:53:38;;;;;;;2.87;1.03;;;;;;;;;;4985863;28;60204;-68
2024/01/24 07:56:03;;;;;;;1.33;0.73;;;;;;;;;;4985122;28;58572;-69
2024/01/24 07:58:28;;;;;;;2.17;1.30;;;;;;;;;;4989814;28;58761;-68
2024/01/24 08:00:55;;;;;;;2.60;1.20;;;;;;;;;;4986350;28;58850;-68
2024/01/24 08:03:20;;;;;;;2.08;0.98;;;;;;;;;;4985307;28;59332;-68
2024/01/24 08:05:45;;;;;;;1.67;1.00;;;;;;;;;;4987790;28;58797;-68
2024/01/24 08:08:10;;;;;;;1.60;1.33;;;;;;;;;;4986489;28;58904;-68
2024/01/24 08:10:35;;;;;;;3.70;1.17;;;;;;;;;;4985805;28;58307;-67
2024/01/24 08:13:01;;;;;;;2.53;1.43;;;;;;;;;;4987181;28;60737;-68
2024/01/24 08:15:26;;;;;;;1.77;1.10;;;;;;;;;;4985286;28;58710;-67
2024/01/24 08:17:51;;;;;;;2.75;1.50;;;;;;;;;;4986921;28;58426;-69
2024/01/24 08:20:19;;;;;;;1.80;1.15;;;;;;;;;;4985635;28;59237;-68
2024/01/24 08:22:44;;;;;;;2.55;0.95;;;;;;;;;;4986844;28;58854;-68
2024/01/24 08:25:09;;;;;;;2.83;1.37;;;;;;;;;;4983435;28;58430;-68
2024/01/24 08:27:36;;;;;;;0.97;0.97;;;;;;;;;;4985398;28;58893;-68
2024/01/24 08:30:01;;;;;;;1.77;1.00;;;;;;;;;;4985476;28;58743;-67
2024/01/24 08:32:26;;;;;;;1.93;0.80;;;;;;;;;;4985572;28;58666;-68
2024/01/24 08:34:52;;;;;;;4.57;1.77;;;;;;;;;;4985600;28;59314;-68
2024/01/24 08:37:17;;;;;;;4.30;1.70;;;;;;;;;;4986856;28;58943;-67
2024/01/24 08:39:42;;;;;;;1.30;1.20;;;;;;;;;;4984829;28;59326;-68
2024/01/24 08:42:07;;;;;;;3.27;1.10;;;;;;;;;;4984392;28;59306;-73
2024/01/24 08:44:33;;;;;;;2.20;1.65;;;;;;;;;;4985912;28;59422;-67
2024/01/24 08:46:58;;;;;;;2.80;1.17;;;;;;;;;;4983738;28;59857;-69
2024/01/24 08:49:23;;;;;;;3.67;1.67;;;;;;;;;;4986925;28;59016;-68
2024/01/24 08:51:48;;;;;;;2.70;1.10;;;;;;;;;;4985566;28;58676;-68
2024/01/24 08:54:13;;;;;;;1.87;1.33;;;;;;;;;;4983713;28;58926;-67
2024/01/24 08:56:39;;;;;;;1.90;0.87;;;;;;;;;;4986758;28;58820;-68
2024/01/24 08:59:04;;;;;;;1.63;0.77;;;;;;;;;;4986026;28;59464;-69
2024/01/24 09:01:29;;;;;;;2.47;1.10;;;;;;;;;;4986779;28;59708;-68
2024/01/24 09:03:54;;;;;;;2.03;1.20;;;;;;;;;;4984147;28;58564;-68
2024/01/24 09:06:21;;;;;;;5.50;1.33;;;;;;;;;;4984078;28;59731;-66
2024/01/24 09:08:51;;;;;;;1.35;1.00;;;;;;;;;;4984626;28;59063;-66
2024/01/24 09:11:16;;;;;;;1.52;1.00;;;;;;;;;;4986737;28;59010;-66
2024/01/24 09:13:42;;;;;;;2.30;1.00;;;;;;;;;;4987739;28;58700;-66
2024/01/24 09:16:07;;;;;;;3.37;1.20;;;;;;;;;;4986495;28;58438;-66
2024/01/24 09:18:32;;;;;;;3.17;1.50;;;;;;;;;;4983314;28;58824;-66
2024/01/24 09:20:57;;;;;;;2.23;1.10;;;;;;;;;;4984967;28;58994;-66
2024/01/24 09:23:22;;;;;;;1.97;0.87;;;;;;;;;;4986075;28;59151;-68
2024/01/24 09:25:48;;;;;;;2.65;0.90;;;;;;;;;;4985935;28;59432;-71
2024/01/24 09:28:13;;;;;;;1.77;1.00;;;;;;;;;;4984033;28;59679;-66
2024/01/24 09:30:39;;;;;;;1.77;0.90;;;;;;;;;;4987978;28;58373;-66
2024/01/24 09:33:04;;;;;;;3.05;1.20;;;;;;;;;;4982823;28;59707;-65
2024/01/24 09:35:29;;;;;;;2.23;1.00;;;;;;;;;;4985137;28;58741;-65
2024/01/24 09:37:55;;;;;;;2.63;0.80;;;;;;;;;;4983074;28;60205;-65
2024/01/24 09:40:20;;;;;;;2.15;1.20;;;;;;;;;;4984091;28;58643;-65
2024/01/24 09:42:45;;;;;;;1.13;0.87;;;;;;;;;;4984396;28;58658;-69
2024/01/24 09:45:13;;;;;;;2.30;1.10;;;;;;;;;;4983177;28;59810;-69
2024/01/24 09:47:39;;;;;;;2.22;0.82;;;;;;;;;;4983575;28;58317;-69
2024/01/24 09:50:05;;;;;;;2.08;1.15;;;;;;;;;;4984293;28;58220;-69
2024/01/24 09:52:32;;;;;;;2.13;1.10;;;;;;;;;;4984002;28;58728;-69
2024/01/24 09:54:58;;;;;;;2.22;0.98;;;;;;;;;;4984330;28;58803;-69
2024/01/24 09:57:24;;;;;;;1.17;0.85;;;;;;;;;;4984888;28;60246;-69
2024/01/24 09:59:50;;;;;;;2.83;1.20;;;;;;;;;;4984001;28;59937;-69
2024/01/24 10:02:15;;;;;;;1.98;0.90;;;;;;;;;;4984786;28;58749;-69
2024/01/24 10:04:42;;;;;;;2.45;0.95;;;;;;;;;;4987475;28;58565;-69
2024/01/24 10:07:08;;;;;;;3.03;1.20;;;;;;;;;;4981613;28;61041;-69
2024/01/24 10:09:33;;;;;;;1.98;1.10;;;;;;;;;;4985132;28;58988;-69
2024/01/24 10:11:59;;;;;;;4.07;1.43;;;;;;;;;;4984017;28;58851;-71
2024/01/24 10:14:24;;;;;;;1.93;1.03;;;;;;;;;;4984228;28;59403;-69
2024/01/24 10:16:50;;;;;;;2.23;1.50;;;;;;;;;;4983511;28;59445;-69
2024/01/24 10:19:15;;;;;;;2.40;1.30;;;;;;;;;;4985441;28;59637;-70
2024/01/24 10:21:41;;;;;;;2.77;1.20;;;;;;;;;;4981352;28;58610;-69
2024/01/24 10:24:07;;;;;;;2.47;1.40;;;;;;;;;;4983815;28;58941;-69
2024/01/24 10:26:33;;;;;;;3.30;1.38;;;;;;;;;;4981466;28;59903;-69
2024/01/24 10:28:59;;;;;;;2.72;1.67;;;;;;;;;;4983257;28;58828;-70
2024/01/24 10:31:24;;;;;;;2.22;0.85;;;;;;;;;;4984534;28;58747;-69
2024/01/24 10:33:52;;;;;;;3.10;1.30;;;;;;;;;;4984317;28;58852;-69
2024/01/24 10:36:18;;;;;;;2.20;1.08;;;;;;;;;;4985112;28;58400;-69
2024/01/24 10:38:47;;;;;;;2.07;1.20;;;;;;;;;;4985806;28;58975;-70
2024/01/24 10:41:13;;;;;;;1.17;1.00;;;;;;;;;;4984767;28;58601;-70
2024/01/24 10:43:42;;;;;;;1.77;1.02;;;;;;;;;;4985144;28;58844;-70
2024/01/24 10:46:08;;;;;;;2.20;0.98;;;;;;;;;;4983392;28;58576;-70
2024/01/24 10:48:33;;;;;;;2.13;0.83;;;;;;;;;;4986107;28;58474;-70
2024/01/24 10:50:59;;;;;;;3.97;1.83;;;;;;;;;;4986747;28;60261;-71
2024/01/24 10:53:24;;;;;;;1.55;1.02;;;;;;;;;;4986702;28;59162;-70
2024/01/24 10:55:50;;;;;;;2.40;1.10;;;;;;;;;;4988891;28;59044;-70
2024/01/24 10:58:16;;;;;;;2.90;1.30;;;;;;;;;;4988241;28;59148;-70
2024/01/24 11:00:41;;;;;;;2.73;1.47;;;;;;;;;;4986943;28;58318;-71
2024/01/24 11:03:07;;;;;;;3.30;1.37;;;;;;;;;;4987583;28;59452;-71
2024/01/24 11:05:47;;;;;;;2.92;0.80;;;;;;;;;;4985056;28;59003;-70
2024/01/24 11:08:18;;;;;;;1.83;0.98;;;;;;;;;;4986897;28;58688;-71
2024/01/24 11:10:44;;;;;;;1.13;1.00;;;;;;;;;;4989164;28;59002;-70
2024/01/24 11:13:10;;;;;;;5.50;1.52;;;;;;;;;;4985311;28;59849;-70
2024/01/24 11:15:35;;;;;;;3.75;1.40;;;;;;;;;;4987477;28;58485;-71
2024/01/24 11:18:20;;;;;;;1.37;0.77;;;;;;;;;;4987820;28;59208;-69
2024/01/24 11:20:47;;;;;;;1.75;0.85;;;;;;;;;;4985957;28;59169;-70
2024/01/24 11:23:31;;;;;;;3.13;1.40;;;;;;;;;;4986558;28;59695;-70
2024/01/24 11:25:56;;;;;;;2.88;1.30;;;;;;;;;;4986016;28;58831;-70
2024/01/24 11:28:24;;;;;;;2.27;0.97;;;;;;;;;;4987332;28;58692;-71
2024/01/24 11:30:50;;;;;;;;;;;;;;;;;;4987634;28;59749;-69
2024/01/24 11:33:16;;;;;;;2.93;0.90;;;;;;;;;;4985580;28;59115;-70
2024/01/24 11:35:42;;;;;;;1.52;1.15;;;;;;;;;;4986788;28;58603;-70
2024/01/24 11:38:13;;;;;;;0.90;0.70;;;;;;;;;;4987181;28;59356;-70
2024/01/24 11:40:38;;;;;;;2.47;1.05;;;;;;;;;;4988323;28;59963;-69
2024/01/24 11:43:04;;;;;;;3.07;0.73;;;;;;;;;;4986598;28;58730;-70
2024/01/24 11:45:29;;;;;;;1.50;1.00;;;;;;;;;;4987357;28;59484;-69
2024/01/24 11:47:56;;;;;;;1.10;0.75;;;;;;;;;;4986289;28;58636;-70
2024/01/24 11:50:21;;;;;;;2.15;1.23;;;;;;;;;;4986586;28;59330;-70
2024/01/24 11:52:46;;;;;;;2.15;1.30;;;;;;;;;;4986193;28;59106;-70
2024/01/24 11:55:12;;;;;;;2.63;0.60;;;;;;;;;;4986824;28;58715;-70
2024/01/24 11:57:37;;;;;;;1.00;0.65;;;;;;;;;;4986781;28;58681;-70
2024/01/24 12:00:06;;;;;;;2.90;1.40;;;;;;;;;;4983671;28;58932;-70
2024/01/24 12:02:31;;;;;;;2.08;1.40;;;;;;;;;;4987525;28;58790;-66
2024/01/24 12:04:56;;;;;;;2.03;0.90;;;;;;;;;;4984364;28;58592;-67
2024/01/24 12:07:22;;;;;;;2.20;1.23;;;;;;;;;;4986163;28;58458;-66
2024/01/24 12:09:48;;;;;;;2.22;1.50;;;;;;;;;;4986013;28;58616;-66
2024/01/24 12:12:14;;;;;;;2.88;1.40;;;;;;;;;;4985402;28;59397;-70
2024/01/24 12:14:39;;;;;;;2.42;0.98;;;;;;;;;;4985079;28;58633;-70
2024/01/24 12:17:04;;;;;;;1.83;0.90;;;;;;;;;;4985566;28;58805;-70
2024/01/24 12:19:30;;;;;;;1.77;0.90;;;;;;;;;;4988047;28;58690;-70
2024/01/24 12:21:55;;;;;;;1.73;1.05;;;;;;;;;;4985780;28;58737;-70
2024/01/24 12:24:21;;;;;;;2.28;1.20;;;;;;;;;;4986757;28;59436;-70
2024/01/24 12:26:46;;;;;;;1.90;1.15;;;;;;;;;;4986213;28;58644;-70
2024/01/24 12:29:11;;;;;;;0.95;0.82;;;;;;;;;;4983711;28;61279;-69
2024/01/24 12:31:40;;;;;;;2.97;1.20;;;;;;;;;;4985762;28;58850;-70
2024/01/24 12:34:05;;;;;;;;;;;;;;;;;;4987065;28;59094;-70
2024/01/24 12:36:30;;;;;;;0.70;0.50;;;;;;;;;;4987415;28;59043;-71
2024/01/24 12:38:55;;;;;;;1.63;1.08;;;;;;;;;;4984153;28;59111;-71
2024/01/24 12:41:21;;;;;;;2.80;1.20;;;;;;;;;;4985528;28;58402;-70
2024/01/24 12:43:46;;;;;;;1.05;0.90;;;;;;;;;;4986001;28;59148;-70
2024/01/24 12:46:12;;;;;;;2.10;1.17;;;;;;;;;;4986416;28;58724;-70
2024/01/24 12:48:37;;;;;;;2.22;1.13;;;;;;;;;;4987778;28;58472;-70
2024/01/24 12:51:02;;;;;;;2.65;1.13;;;;;;;;;;4984036;28;58782;-70
2024/01/24 12:53:28;;;;;;;2.33;1.00;;;;;;;;;;4987948;28;58430;-69
2024/01/24 12:55:53;;;;;;;1.23;0.87;;;;;;;;;;4981836;28;59468;-68
2024/01/24 12:58:18;;;;;;;2.43;0.70;;;;;;;;;;4983142;28;58991;-76
2024/01/24 13:00:43;;;;;;;2.85;1.63;;;;;;;;;;4982383;28;58221;-76
2024/01/24 13:03:08;;;;;;;5.95;1.25;;;;;;;;;;4984263;28;58675;-76
2024/01/24 13:05:33;;;;;;;7.20;2.60;;;;;;;;;;4981705;28;59191;-76
2024/01/24 13:07:59;;;;;;;6.67;2.37;;;;;;;;;;4986335;28;58659;-74
2024/01/24 13:10:25;;;;;;;5.20;2.70;;;;;;;;;;4983103;28;59674;-75
2024/01/24 13:12:51;;;;;;;6.28;2.97;;;;;;;;;;4983559;28;58621;-75
2024/01/24 13:15:16;;;;;;;3.05;2.25;;;;;;;;;;4983610;28;59409;-76
2024/01/24 13:17:42;;;;;;;4.30;2.22;;;;;;;;;;4984086;28;59801;-74
2024/01/24 13:20:09;;;;;;;3.73;2.03;;;;;;;;;;4985282;28;58441;-75
2024/01/24 13:22:34;;;;;;;5.13;1.83;;;;;;;;;;4987194;28;59625;-78
2024/01/24 13:24:59;;;;;;;9.03;2.00;;;;;;;;;;4986361;28;59160;-77
2024/01/24 13:27:24;;;;;;;4.67;1.90;;;;;;;;;;4985577;28;58472;-76
2024/01/24 13:29:49;;;;;;;4.83;1.87;;;;;;;;;;4985754;28;58907;-76
2024/01/24 13:32:15;;;;;;;6.18;2.85;;;;;;;;;;4983841;28;58789;-75
2024/01/24 13:34:40;;;;;;;3.80;1.87;;;;;;;;;;4986258;28;58514;-76
2024/01/24 13:37:05;;;;;;;4.13;2.65;;;;;;;;;;4983897;28;58328;-76
2024/01/24 13:39:30;;;;;;;3.67;2.15;;;;;;;;;;4984995;28;58362;-76
2024/01/24 13:41:55;;;;;;;4.07;2.17;;;;;;;;;;4983139;28;60347;-76
2024/01/24 13:44:20;;;;;;;5.63;1.90;;;;;;;;;;4970534;28;60020;-72
2024/01/24 13:46:46;;;;;;;3.80;1.73;;;;;;;;;;4984254;28;59055;-72
2024/01/24 13:49:12;;;;;;;5.90;2.05;;;;;;;;;;4983761;28;59029;-72
2024/01/24 13:51:37;;;;;;;3.87;2.20;;;;;;;;;;4985039;28;59210;-72
2024/01/24 13:54:03;;;;;;;1.92;1.33;;;;;;;;;;4984034;28;60096;-72
2024/01/24 13:56:28;;;;;;;4.57;2.10;;;;;;;;;;4984347;28;58747;-72
2024/01/24 13:58:53;;;;;;;4.30;2.10;;;;;;;;;;4983543;28;58933;-71
2024/01/24 14:01:18;;;;;;;2.50;1.13;;;;;;;;;;4984060;28;59446;-72
2024/01/24 14:03:43;;;;;;;3.17;1.77;;;;;;;;;;4983619;28;58593;-71
2024/01/24 14:06:09;;;;;;;2.80;1.47;;;;;;;;;;4981084;28;58683;-72
2024/01/24 14:08:36;;;;;;;4.30;2.00;;;;;;;;;;4982747;28;60442;-72
2024/01/24 14:11:03;;;;;;;2.92;1.90;;;;;;;;;;4981165;28;59825;-72
2024/01/24 14:13:28;;;;;;;6.00;2.10;;;;;;;;;;4983120;28;59612;-72
2024/01/24 14:15:53;;;;;;;4.97;2.13;;;;;;;;;;4981425;28;60347;-71
2024/01/24 14:18:18;;;;;;;2.73;2.23;;;;;;;;;;4985494;28;58666;-72
2024/01/24 14:20:44;;;;;;;2.90;2.17;;;;;;;;;;4982872;28;59683;-72
2024/01/24 14:23:09;;;;;;;4.53;2.53;;;;;;;;;;4982412;28;58967;-72
2024/01/24 14:25:35;;;;;;;4.95;2.05;;;;;;;;;;4983484;28;58473;-71
2024/01/24 14:28:00;;;;;;;3.23;1.67;;;;;;;;;;4982122;28;60632;-71
2024/01/24 14:30:25;;;;;;;3.08;1.48;;;;;;;;;;4984232;28;58984;-71
2024/01/24 14:32:51;;;;;;;3.40;1.53;;;;;;;;;;4984919;28;58650;-67